createdAt,value
2018-11-04T00:01:27.040Z,99053.00
2018-11-04T00:03:55.670Z,99047.00
2018-11-04T00:06:24.206Z,99049.00
2018-11-04T00:08:52.890Z,99053.00
2018-11-04T00:11:21.540Z,99048.00
2018-11-04T00:13:50.149Z,99036.00
2018-11-04T00:16:18.905Z,99034.00
2018-11-04T00:18:47.759Z,99029.00
2018-11-04T00:21:16.326Z,99030.00
2018-11-04T00:23:44.923Z,99026.00
2018-11-04T00:26:13.487Z,99017.00
2018-11-04T00:28:42.148Z,99024.00
2018-11-04T00:31:10.830Z,99017.00
2018-11-04T00:33:39.715Z,99021.00
2018-11-04T00:36:08.426Z,99022.00
2018-11-04T00:38:37.030Z,99013.00
2018-11-04T00:41:06.132Z,99009.00
2018-11-04T00:43:34.833Z,99001.00
2018-11-04T00:46:03.422Z,99014.00
2018-11-04T00:48:32.036Z,99011.00
2018-11-04T00:51:00.679Z,99010.00
2018-11-04T00:53:29.348Z,99005.00
2018-11-04T00:55:58.149Z,99000.00
2018-11-04T00:58:26.972Z,98998.00
2018-11-04T01:00:55.928Z,98997.00
2018-11-04T01:03:24.558Z,98992.00
2018-11-04T01:05:53.182Z,98995.00
2018-11-04T01:08:21.862Z,98988.00
2018-11-04T01:10:50.549Z,98992.00
2018-11-04T01:13:19.346Z,98983.00
2018-11-04T01:15:48.123Z,98983.00
2018-11-04T01:18:16.830Z,98981.00
2018-11-04T01:20:45.923Z,98977.00
2018-11-04T01:23:14.417Z,98968.00
2018-11-04T01:25:43.018Z,98968.00
2018-11-04T01:28:11.550Z,98961.00
2018-11-04T01:30:40.101Z,98950.00
2018-11-04T01:33:08.728Z,98953.00
2018-11-04T01:35:37.281Z,98949.00
2018-11-04T01:38:05.829Z,98950.00
2018-11-04T01:40:34.478Z,98945.00
2018-11-04T01:43:03.026Z,98945.00
2018-11-04T01:45:31.745Z,98941.00
2018-11-04T01:48:00.375Z,98946.00
2018-11-04T01:50:28.912Z,98939.00
2018-11-04T01:52:57.649Z,98932.00
2018-11-04T01:55:26.403Z,98928.00
2018-11-04T01:57:55.185Z,98920.00
2018-11-04T02:00:23.894Z,98922.00
2018-11-04T02:02:52.548Z,98934.00
2018-11-04T02:05:21.281Z,98925.00
2018-11-04T02:07:49.828Z,98935.00
2018-11-04T02:10:18.509Z,98917.00
2018-11-04T02:12:47.347Z,98922.00
2018-11-04T02:15:15.878Z,98912.00
2018-11-04T02:17:44.443Z,98906.00
2018-11-04T02:20:13.620Z,98902.00
2018-11-04T02:22:42.595Z,98905.00
2018-11-04T02:25:13.443Z,98899.00
2018-11-04T02:27:42.784Z,98896.00
2018-11-04T02:30:14.687Z,98903.00
2018-11-04T02:32:44.302Z,98897.00
2018-11-04T02:35:13.647Z,98885.00
2018-11-04T02:37:42.208Z,98895.00
2018-11-04T02:40:11.584Z,98880.00
2018-11-04T02:42:40.169Z,98876.00
2018-11-04T02:45:09.149Z,98869.00
2018-11-04T02:47:38.165Z,98879.00
2018-11-04T02:50:07.635Z,98872.00
2018-11-04T02:52:36.191Z,98874.00
2018-11-04T02:55:05.237Z,98879.00
2018-11-04T02:57:33.777Z,98869.00
2018-11-04T03:00:02.411Z,98872.00
2018-11-04T03:02:30.956Z,98870.00
2018-11-04T03:04:59.499Z,98869.00
2018-11-04T03:07:28.080Z,98864.00
2018-11-04T03:09:56.601Z,98854.00
2018-11-04T03:12:25.142Z,98860.00
2018-11-04T03:14:53.712Z,98847.00
2018-11-04T03:17:22.303Z,98847.00
2018-11-04T03:19:50.918Z,98840.00
2018-11-04T03:22:19.675Z,98833.00
2018-11-04T03:24:48.299Z,98838.00
2018-11-04T03:27:16.868Z,98843.00
2018-11-04T03:29:45.425Z,98838.00
2018-11-04T03:32:13.938Z,98848.00
2018-11-04T03:34:42.504Z,98837.00
2018-11-04T03:37:11.032Z,98831.00
2018-11-04T03:39:39.584Z,98835.00
2018-11-04T03:42:08.139Z,98827.00
2018-11-04T03:44:36.776Z,98827.00
2018-11-04T03:47:05.823Z,98833.00
2018-11-04T03:49:34.440Z,98828.00
2018-11-04T03:52:03.202Z,98829.00
2018-11-04T03:54:31.793Z,98823.00
2018-11-04T03:57:00.356Z,98832.00
2018-11-04T03:59:28.968Z,98825.00
2018-11-04T04:01:57.539Z,98817.00
2018-11-04T04:04:26.500Z,98815.00
2018-11-04T04:06:55.046Z,98816.00
2018-11-04T04:09:23.638Z,98821.00
2018-11-04T04:11:52.187Z,98812.00
2018-11-04T04:14:20.840Z,98811.00
2018-11-04T04:16:49.481Z,98808.00
2018-11-04T04:19:18.241Z,98814.00
2018-11-04T04:21:46.882Z,98812.00
2018-11-04T04:24:15.825Z,98811.00
2018-11-04T04:26:44.603Z,98811.00
2018-11-04T04:29:13.176Z,98796.00
2018-11-04T04:31:41.864Z,98799.00
2018-11-04T04:34:17.011Z,98791.00
2018-11-04T04:36:45.652Z,98791.00
2018-11-04T04:39:14.266Z,98779.00
2018-11-04T04:41:42.876Z,98776.00
2018-11-04T04:44:11.434Z,98788.00
2018-11-04T04:46:39.953Z,98777.00
2018-11-04T04:49:08.611Z,98784.00
2018-11-04T04:51:37.146Z,98775.00
2018-11-04T04:54:05.862Z,98787.00
2018-11-04T04:56:34.500Z,98788.00
2018-11-04T04:59:03.073Z,98800.00
2018-11-04T05:01:31.650Z,98782.00
2018-11-04T05:04:00.234Z,98773.00
2018-11-04T05:06:28.876Z,98786.00
2018-11-04T05:08:57.391Z,98776.00
2018-11-04T05:11:25.939Z,98795.00
2018-11-04T05:13:54.503Z,98788.00
2018-11-04T05:16:23.049Z,98792.00
2018-11-04T05:18:51.594Z,98782.00
2018-11-04T05:21:20.134Z,98787.00
2018-11-04T05:23:48.651Z,98797.00
2018-11-04T05:26:17.186Z,98773.00
2018-11-04T05:28:45.759Z,98773.00
2018-11-04T05:31:14.292Z,98762.00
2018-11-04T05:33:42.876Z,98767.00
2018-11-04T05:36:11.484Z,98768.00
2018-11-04T05:38:40.012Z,98763.00
2018-11-04T05:41:08.895Z,98767.00
2018-11-04T05:43:37.615Z,98768.00
2018-11-04T05:46:07.076Z,98770.00
2018-11-04T05:48:35.715Z,98768.00
2018-11-04T05:51:04.542Z,98778.00
2018-11-04T05:53:33.155Z,98778.00
2018-11-04T05:56:01.759Z,98768.00
2018-11-04T05:58:30.517Z,98768.00
2018-11-04T06:00:59.082Z,98770.00
2018-11-04T06:03:27.636Z,98763.00
2018-11-04T06:05:56.980Z,98767.00
2018-11-04T06:08:25.534Z,98778.00
2018-11-04T06:10:54.147Z,98777.00
2018-11-04T06:13:22.764Z,98780.00
2018-11-04T06:15:51.580Z,98783.00
2018-11-04T06:18:20.399Z,98774.00
2018-11-04T06:20:49.018Z,98773.00
2018-11-04T06:23:17.564Z,98776.00
2018-11-04T06:25:47.271Z,98781.00
2018-11-04T06:28:16.035Z,98779.00
2018-11-04T06:30:45.452Z,98783.00
2018-11-04T06:33:14.784Z,98784.00
2018-11-04T06:35:43.650Z,98784.00
2018-11-04T06:38:12.715Z,98785.00
2018-11-04T06:40:41.405Z,98772.00
2018-11-04T06:43:10.180Z,98780.00
2018-11-04T06:45:39.162Z,98782.00
2018-11-04T06:48:07.674Z,98781.00
2018-11-04T06:50:36.259Z,98779.00
2018-11-04T06:53:05.197Z,98781.00
2018-11-04T06:55:34.906Z,98782.00
2018-11-04T06:58:03.433Z,98786.00
2018-11-04T07:00:32.211Z,98786.00
2018-11-04T07:03:00.783Z,98781.00
2018-11-04T07:05:29.332Z,98783.00
2018-11-04T07:07:57.967Z,98795.00
2018-11-04T07:10:26.812Z,98782.00
2018-11-04T07:12:55.486Z,98777.00
2018-11-04T07:15:24.146Z,98778.00
2018-11-04T07:17:52.767Z,98768.00
2018-11-04T07:20:21.494Z,98778.00
2018-11-04T07:22:50.051Z,98759.00
2018-11-04T07:25:18.604Z,98765.00
2018-11-04T07:27:47.129Z,98776.00
2018-11-04T07:30:15.846Z,98773.00
2018-11-04T07:32:44.614Z,98779.00
2018-11-04T07:35:13.232Z,98781.00
2018-11-04T07:37:42.027Z,98780.00
2018-11-04T07:40:11.037Z,98797.00
2018-11-04T07:42:39.588Z,98780.00
2018-11-04T07:45:09.028Z,98779.00
2018-11-04T07:47:37.903Z,98786.00
2018-11-04T07:50:09.404Z,98781.00
2018-11-04T07:52:38.376Z,98782.00
2018-11-04T07:55:08.446Z,98776.00
2018-11-04T07:57:39.292Z,98770.00
2018-11-04T08:00:10.570Z,98758.00
2018-11-04T08:02:40.489Z,98770.00
2018-11-04T08:05:10.139Z,98763.00
2018-11-04T08:07:39.786Z,98759.00
2018-11-04T08:10:10.518Z,98769.00
2018-11-04T08:12:39.588Z,98763.00
2018-11-04T08:15:09.261Z,98760.00
2018-11-04T08:17:38.138Z,98762.00
2018-11-04T08:20:07.503Z,98753.00
2018-11-04T08:22:36.419Z,98759.00
2018-11-04T08:25:05.274Z,98760.00
2018-11-04T08:27:34.325Z,98754.00
2018-11-04T08:30:03.001Z,98751.00
2018-11-04T08:32:31.775Z,98756.00
2018-11-04T08:35:00.483Z,98760.00
2018-11-04T08:37:30.350Z,98768.00
2018-11-04T08:39:59.357Z,98777.00
2018-11-04T08:42:31.539Z,98764.00
2018-11-04T08:45:00.103Z,98760.00
2018-11-04T08:47:29.060Z,98760.00
2018-11-04T08:50:14.467Z,98746.00
2018-11-04T08:52:43.582Z,98742.00
2018-11-04T08:55:12.094Z,98746.00
2018-11-04T08:57:40.673Z,98739.00
2018-11-04T09:00:11.710Z,98741.00
2018-11-04T09:02:40.255Z,98725.00
2018-11-04T09:05:09.071Z,98725.00
2018-11-04T09:07:37.613Z,98728.00
2018-11-04T09:10:08.999Z,98732.00
2018-11-04T09:12:37.683Z,98726.00
2018-11-04T09:15:07.120Z,98730.00
2018-11-04T09:17:35.881Z,98732.00
2018-11-04T09:20:05.505Z,98745.00
2018-11-04T09:22:34.019Z,98714.00
2018-11-04T09:25:02.435Z,98727.00
2018-11-04T09:27:32.024Z,98729.00
2018-11-04T09:30:00.722Z,98728.00
2018-11-04T09:32:29.581Z,98731.00
2018-11-04T09:34:58.116Z,98734.00
2018-11-04T09:37:26.551Z,98725.00
2018-11-04T09:39:55.096Z,98724.00
2018-11-04T09:42:23.754Z,98726.00
2018-11-04T09:44:52.229Z,98718.00
2018-11-04T09:47:20.931Z,98723.00
2018-11-04T09:49:49.916Z,98708.00
2018-11-04T09:52:18.703Z,98708.00
2018-11-04T09:54:47.513Z,98706.00
2018-11-04T09:57:16.385Z,98694.00
2018-11-04T09:59:45.183Z,98694.00
2018-11-04T10:02:14.785Z,98683.00
2018-11-04T10:04:43.384Z,98685.00
2018-11-04T10:07:12.128Z,98669.00
2018-11-04T10:09:41.503Z,98661.00
2018-11-04T10:12:09.985Z,98670.00
2018-11-04T10:14:38.657Z,98660.00
2018-11-04T10:17:07.335Z,98662.00
2018-11-04T10:19:36.885Z,98662.00
2018-11-04T10:22:05.676Z,98661.00
2018-11-04T10:24:35.345Z,98650.00
2018-11-04T10:27:09.657Z,98653.00
2018-11-04T10:29:38.488Z,98652.00
2018-11-04T10:32:07.180Z,98649.00
2018-11-04T10:34:36.076Z,98660.00
2018-11-04T10:37:05.145Z,98650.00
2018-11-04T10:39:33.737Z,98649.00
2018-11-04T10:42:02.610Z,98655.00
2018-11-04T10:44:31.343Z,98650.00
2018-11-04T10:46:59.927Z,98644.00
2018-11-04T10:49:28.880Z,98645.00
2018-11-04T10:51:58.588Z,98651.00
2018-11-04T10:54:27.258Z,98656.00
2018-11-04T10:56:56.187Z,98649.00
2018-11-04T10:59:27.627Z,98650.00
2018-11-04T11:01:58.061Z,98647.00
2018-11-04T11:04:26.932Z,98635.00
2018-11-04T11:06:55.428Z,98634.00
2018-11-04T11:09:24.281Z,98633.00
2018-11-04T11:11:54.431Z,98620.00
2018-11-04T11:14:23.021Z,98606.00
2018-11-04T11:16:51.688Z,98602.00
2018-11-04T11:19:20.260Z,98596.00
2018-11-04T11:21:48.991Z,98593.00
2018-11-04T11:24:18.099Z,98601.00
2018-11-04T11:26:48.589Z,98597.00
2018-11-04T11:29:17.688Z,98600.00
2018-11-04T11:31:46.436Z,98590.00
2018-11-04T11:34:15.158Z,98584.00
2018-11-04T11:36:43.819Z,98588.00
2018-11-04T11:39:13.913Z,98593.00
2018-11-04T11:41:43.266Z,98582.00
2018-11-04T11:44:12.487Z,98579.00
2018-11-04T11:46:42.315Z,98578.00
2018-11-04T11:49:10.979Z,98565.00
2018-11-04T11:51:39.658Z,98575.00
2018-11-04T11:54:08.541Z,98570.00
2018-11-04T11:56:37.294Z,98574.00
2018-11-04T11:59:06.388Z,98571.00
2018-11-04T12:01:35.665Z,98561.00
2018-11-04T12:04:04.286Z,98547.00
2018-11-04T12:06:33.074Z,98540.00
2018-11-04T12:09:01.834Z,98536.00
2018-11-04T12:11:30.585Z,98524.00
2018-11-04T12:13:59.405Z,98512.00
2018-11-04T12:16:28.165Z,98513.00
2018-11-04T12:18:56.801Z,98510.00
2018-11-04T12:21:27.681Z,98496.00
2018-11-04T12:23:56.638Z,98508.00
2018-11-04T12:26:25.216Z,98517.00
2018-11-04T12:28:54.961Z,98511.00
2018-11-04T12:31:25.221Z,98499.00
2018-11-04T12:33:53.847Z,98514.00
2018-11-04T12:36:22.462Z,98519.00
2018-11-04T12:38:51.011Z,98511.00
2018-11-04T12:41:19.578Z,98509.00
2018-11-04T12:43:48.322Z,98503.00
2018-11-04T12:46:17.084Z,98502.00
2018-11-04T12:48:45.828Z,98487.00
2018-11-04T12:51:14.598Z,98492.00
2018-11-04T12:53:43.135Z,98483.00
2018-11-04T12:56:11.953Z,98487.00
2018-11-04T12:58:40.676Z,98485.00
2018-11-04T13:01:09.236Z,98499.00
2018-11-04T13:03:38.143Z,98488.00
2018-11-04T13:06:06.839Z,98498.00
2018-11-04T13:08:35.557Z,98496.00
2018-11-04T13:11:04.318Z,98487.00
2018-11-04T13:13:32.919Z,98482.00
2018-11-04T13:16:01.571Z,98476.00
2018-11-04T13:18:30.155Z,98475.00
2018-11-04T13:20:58.779Z,98466.00
2018-11-04T13:23:27.446Z,98469.00
2018-11-04T13:25:56.157Z,98465.00
2018-11-04T13:28:24.917Z,98468.00
2018-11-04T13:30:53.909Z,98462.00
2018-11-04T13:33:22.871Z,98456.00
2018-11-04T13:35:51.555Z,98457.00
2018-11-04T13:38:20.339Z,98463.00
2018-11-04T13:40:49.107Z,98464.00
2018-11-04T13:43:17.879Z,98459.00
2018-11-04T13:45:47.537Z,98462.00
2018-11-04T13:48:16.316Z,98460.00
2018-11-04T13:50:45.016Z,98454.00
2018-11-04T13:53:13.714Z,98456.00
2018-11-04T13:55:42.489Z,98454.00
2018-11-04T13:58:13.155Z,98447.00
2018-11-04T14:00:41.729Z,98450.00
2018-11-04T14:03:10.382Z,98448.00
2018-11-04T14:05:39.094Z,98447.00
2018-11-04T14:08:07.767Z,98448.00
2018-11-04T14:10:36.739Z,98441.00
2018-11-04T14:13:07.420Z,98424.00
2018-11-04T14:15:36.327Z,98426.00
2018-11-04T14:18:05.421Z,98417.00
2018-11-04T14:20:34.076Z,98410.00
2018-11-04T14:23:02.964Z,98420.00
2018-11-04T14:25:32.293Z,98418.00
2018-11-04T14:31:26.409Z,98415.00
2018-11-04T14:34:15.268Z,98409.00
2018-11-04T14:37:11.471Z,98421.00
2018-11-04T14:48:17.083Z,98412.00
2018-11-04T14:56:56.800Z,98424.00
2018-11-04T14:59:26.069Z,98408.00
2018-11-04T15:01:55.286Z,98416.00
2018-11-04T15:04:23.899Z,98404.00
2018-11-04T15:06:55.808Z,98412.00
2018-11-04T15:09:24.607Z,98401.00
2018-11-04T15:11:53.254Z,98403.00
2018-11-04T15:14:21.894Z,98410.00
2018-11-04T15:16:50.904Z,98393.00
2018-11-04T15:19:20.642Z,98411.00
2018-11-04T15:21:49.399Z,98406.00
2018-11-04T15:24:18.517Z,98406.00
2018-11-04T15:26:47.306Z,98403.00
2018-11-04T15:29:15.992Z,98410.00
2018-11-04T15:31:44.773Z,98401.00
2018-11-04T15:34:13.798Z,98405.00
2018-11-04T15:36:42.614Z,98403.00
2018-11-04T15:39:12.705Z,98398.00
2018-11-04T15:41:41.545Z,98414.00
2018-11-04T15:44:10.984Z,98418.00
2018-11-04T15:46:42.397Z,98412.00
2018-11-04T15:49:11.342Z,98403.00
2018-11-04T15:51:40.621Z,98394.00
2018-11-04T15:54:09.339Z,98409.00
2018-11-04T15:56:38.197Z,98404.00
2018-11-04T15:59:06.854Z,98397.00
2018-11-04T16:01:36.654Z,98395.00
2018-11-04T16:04:05.863Z,98395.00
2018-11-04T16:06:37.324Z,98397.00
2018-11-04T16:09:08.219Z,98393.00
2018-11-04T16:11:37.982Z,98413.00
2018-11-04T16:14:06.893Z,98407.00
2018-11-04T16:16:35.768Z,98413.00
2018-11-04T16:19:04.653Z,98415.00
2018-11-04T16:21:33.438Z,98412.00
2018-11-04T16:24:02.149Z,98403.00
2018-11-04T16:26:30.788Z,98409.00
2018-11-04T16:28:59.479Z,98403.00
2018-11-04T16:31:39.024Z,98410.00
2018-11-04T16:34:07.628Z,98396.00
2018-11-04T16:36:36.283Z,98396.00
2018-11-04T16:39:06.317Z,98393.00
2018-11-04T16:41:35.266Z,98395.00
2018-11-04T16:44:04.047Z,98401.00
2018-11-04T16:46:32.551Z,98389.00
2018-11-04T16:49:01.352Z,98397.00
2018-11-04T16:51:29.924Z,98384.00
2018-11-04T16:53:58.589Z,98397.00
2018-11-04T16:56:27.259Z,98398.00
2018-11-04T16:58:55.844Z,98402.00
2018-11-04T17:01:24.634Z,98403.00
2018-11-04T17:03:53.433Z,98407.00
2018-11-04T17:06:22.240Z,98398.00
2018-11-04T17:08:51.037Z,98392.00
2018-11-04T17:11:19.641Z,98393.00
2018-11-04T17:13:48.485Z,98401.00
2018-11-04T17:16:17.095Z,98384.00
2018-11-04T17:18:45.908Z,98392.00
2018-11-04T17:21:14.993Z,98403.00
2018-11-04T17:23:43.699Z,98394.00
2018-11-04T17:26:12.755Z,98391.00
2018-11-04T17:28:41.519Z,98392.00
2018-11-04T17:31:10.187Z,98371.00
2018-11-04T17:33:40.559Z,98377.00
2018-11-04T17:36:09.743Z,98380.00
2018-11-04T17:38:38.292Z,98377.00
2018-11-04T17:41:07.099Z,98370.00
2018-11-04T17:43:37.756Z,98371.00
2018-11-04T17:46:06.804Z,98362.00
2018-11-04T17:48:35.373Z,98357.00
2018-11-04T17:51:04.190Z,98351.00
2018-11-04T17:53:32.876Z,98350.00
2018-11-04T17:56:01.660Z,98349.00
2018-11-04T17:58:30.407Z,98336.00
2018-11-04T18:00:59.277Z,98345.00
2018-11-04T18:03:27.962Z,98320.00
2018-11-04T18:05:56.800Z,98323.00
2018-11-04T18:08:25.548Z,98329.00
2018-11-04T18:10:54.111Z,98334.00
2018-11-04T18:13:23.189Z,98339.00
2018-11-04T18:15:51.790Z,98337.00
2018-11-04T18:18:20.512Z,98343.00
2018-11-04T18:20:49.189Z,98347.00
2018-11-04T18:23:17.942Z,98354.00
2018-11-04T18:25:46.687Z,98350.00
2018-11-04T18:28:15.464Z,98346.00
2018-11-04T18:30:44.385Z,98336.00
2018-11-04T18:33:13.258Z,98340.00
2018-11-04T18:35:42.144Z,98335.00
2018-11-04T18:38:12.321Z,98331.00
2018-11-04T18:40:41.225Z,98344.00
2018-11-04T18:43:10.048Z,98333.00
2018-11-04T18:45:39.940Z,98339.00
2018-11-04T18:48:08.687Z,98326.00
2018-11-04T18:50:37.724Z,98334.00
2018-11-04T18:53:06.526Z,98318.00
2018-11-04T18:55:35.360Z,98325.00
2018-11-04T18:58:04.096Z,98327.00
2018-11-04T19:00:32.847Z,98327.00
2018-11-04T19:03:01.766Z,98333.00
2018-11-04T19:05:30.877Z,98319.00
2018-11-04T19:07:59.453Z,98320.00
2018-11-04T19:10:28.239Z,98309.00
2018-11-04T19:12:56.853Z,98312.00
2018-11-04T19:15:26.617Z,98294.00
2018-11-04T19:17:55.648Z,98311.00
2018-11-04T19:20:24.553Z,98308.00
2018-11-04T19:22:53.336Z,98304.00
2018-11-04T19:25:21.901Z,98301.00
2018-11-04T19:27:50.922Z,98299.00
2018-11-04T19:30:19.604Z,98306.00
2018-11-04T19:32:48.372Z,98300.00
2018-11-04T19:35:17.992Z,98305.00
2018-11-04T19:37:46.655Z,98298.00
2018-11-04T19:40:16.165Z,98289.00
2018-11-04T19:42:44.999Z,98282.00
2018-11-04T19:45:13.518Z,98287.00
2018-11-04T19:47:42.444Z,98281.00
2018-11-04T19:50:12.339Z,98283.00
2018-11-04T19:52:41.593Z,98294.00
2018-11-04T19:55:10.964Z,98290.00
2018-11-04T19:57:39.622Z,98288.00
2018-11-04T20:00:09.750Z,98298.00
2018-11-04T20:02:38.649Z,98303.00
2018-11-04T20:05:08.666Z,98297.00
2018-11-04T20:07:37.465Z,98291.00
2018-11-04T20:10:09.029Z,98291.00
2018-11-04T20:13:46.138Z,98296.00
2018-11-04T20:16:14.599Z,98286.00
2018-11-04T20:18:48.630Z,98279.00
2018-11-04T20:21:17.206Z,98273.00
2018-11-04T20:23:45.859Z,98280.00
2018-11-04T20:26:16.036Z,98271.00
2018-11-04T20:28:44.702Z,98280.00
2018-11-04T20:31:18.469Z,98290.00
2018-11-04T20:33:47.050Z,98291.00
2018-11-04T20:36:15.866Z,98283.00
2018-11-04T20:38:49.917Z,98279.00
2018-11-04T20:41:24.090Z,98271.00
2018-11-04T20:43:52.703Z,98268.00
2018-11-04T20:46:21.293Z,98268.00
2018-11-04T20:48:55.335Z,98265.00
2018-11-04T20:51:24.279Z,98253.00
2018-11-04T20:53:52.973Z,98244.00
2018-11-04T20:56:27.046Z,98248.00
2018-11-04T20:58:55.740Z,98244.00
2018-11-04T21:01:24.724Z,98245.00
2018-11-04T21:03:53.837Z,98249.00
2018-11-04T21:06:22.516Z,98249.00
2018-11-04T21:08:51.151Z,98247.00
2018-11-04T21:11:19.751Z,98233.00
2018-11-04T21:13:48.501Z,98247.00
2018-11-04T21:16:17.168Z,98234.00
2018-11-04T21:18:45.948Z,98236.00
2018-11-04T21:21:14.736Z,98234.00
2018-11-04T21:23:43.430Z,98226.00
2018-11-04T21:26:12.017Z,98229.00
2018-11-04T21:28:40.829Z,98226.00
2018-11-04T21:31:09.381Z,98218.00
2018-11-04T21:33:38.319Z,98226.00
2018-11-04T21:36:07.029Z,98237.00
2018-11-04T21:38:35.638Z,98241.00
2018-11-04T21:41:04.333Z,98233.00
2018-11-04T21:43:34.814Z,98231.00
2018-11-04T21:46:04.500Z,98217.00
2018-11-04T21:48:33.099Z,98225.00
2018-11-04T21:51:01.783Z,98225.00
2018-11-04T21:53:30.349Z,98219.00
2018-11-04T21:55:59.196Z,98231.00
2018-11-04T21:58:27.908Z,98205.00
2018-11-04T22:00:57.503Z,98207.00
2018-11-04T22:03:26.224Z,98202.00
2018-11-04T22:05:54.639Z,98207.00
2018-11-04T22:08:23.196Z,98198.00
2018-11-04T22:10:51.875Z,98204.00
2018-11-04T22:13:20.580Z,98211.00
2018-11-04T22:15:49.142Z,98222.00
2018-11-04T22:18:17.768Z,98213.00
2018-11-04T22:20:46.518Z,98212.00
2018-11-04T22:23:15.127Z,98202.00
2018-11-04T22:25:43.748Z,98197.00
2018-11-04T22:28:12.398Z,98203.00
2018-11-04T22:30:40.941Z,98198.00
2018-11-04T22:33:09.657Z,98205.00
2018-11-04T22:35:38.445Z,98204.00
2018-11-04T22:38:07.248Z,98203.00
2018-11-04T22:40:35.814Z,98202.00
2018-11-04T22:43:04.346Z,98182.00
2018-11-04T22:45:32.911Z,98193.00
2018-11-04T22:48:01.501Z,98189.00
2018-11-04T22:50:30.111Z,98179.00
2018-11-04T22:52:58.955Z,98181.00
2018-11-04T22:55:27.585Z,98186.00
2018-11-04T22:58:00.340Z,98194.00
2018-11-04T23:00:34.213Z,98173.00
2018-11-04T23:03:02.781Z,98194.00
2018-11-04T23:05:31.512Z,98186.00
2018-11-04T23:08:00.120Z,98194.00
2018-11-04T23:10:28.810Z,98191.00
2018-11-04T23:12:57.425Z,98184.00
2018-11-04T23:15:26.077Z,98179.00
2018-11-04T23:17:54.689Z,98187.00
2018-11-04T23:20:23.381Z,98172.00
2018-11-04T23:22:52.423Z,98158.00
2018-11-04T23:25:21.088Z,98159.00
2018-11-04T23:27:49.693Z,98159.00
2018-11-04T23:30:19.675Z,98163.00
2018-11-04T23:32:48.440Z,98162.00
2018-11-04T23:35:17.066Z,98153.00
2018-11-04T23:37:45.958Z,98148.00
2018-11-04T23:40:14.664Z,98153.00
2018-11-04T23:42:43.225Z,98135.00
2018-11-04T23:45:13.467Z,98144.00
2018-11-04T23:47:42.545Z,98149.00
2018-11-04T23:50:14.015Z,98146.00
2018-11-04T23:52:43.001Z,98152.00
2018-11-04T23:55:12.586Z,98153.00
2018-11-04T23:57:41.263Z,98146.00
